Time;durP1;ratioP1;P1;durP2;ratioP2;P2;SDS_P1;SDS_P2;PMS_P1;PMS_P2;Temp;Humidity;BMP_temperature;BMP_pressure;BME280_temperature;BME280_humidity;BME280_pressure;Samples;Min_cycle;Max_cycle;Signal;HPM_P1;HPM_P2
2022/12/17 13:06:53;;;;;;;41.87;25.00;;;0.40;99.90;;;;;;5052512;28;20222;-70
2022/12/17 13:09:32;;;;;;;43.60;25.70;;;0.40;99.90;;;;;;5052544;28;20543;-70
2022/12/17 13:12:04;;;;;;;41.77;24.70;;;0.40;99.90;;;;;;5052452;28;20196;-70
2022/12/17 13:14:34;;;;;;;42.60;24.63;;;0.30;99.90;;;;;;5050861;28;20189;-70
2022/12/17 13:17:06;;;;;;;43.93;24.83;;;0.40;99.90;;;;;;5052126;28;20682;-70
2022/12/17 13:19:37;;;;;;;41.30;24.43;;;0.60;99.90;;;;;;5052499;28;20190;-69
2022/12/17 13:22:15;;;;;;;41.30;25.43;;;0.60;99.90;;;;;;5052262;28;20209;-70
2022/12/17 13:24:46;;;;;;;43.80;25.93;;;0.70;99.90;;;;;;5052093;28;20205;-70
2022/12/17 13:27:33;;;;;;;42.40;25.50;;;0.70;99.90;;;;;;5051779;28;20210;-69
2022/12/17 13:30:20;;;;;;;44.23;26.47;;;0.70;99.90;;;;;;5052259;28;20184;-70
2022/12/17 13:33:07;;;;;;;41.67;24.23;;;0.70;99.90;;;;;;5052130;28;20244;-70
2022/12/17 13:36:07;;;;;;;46.67;26.47;;;0.80;99.90;;;;;;5050908;28;20196;-70
2022/12/17 13:38:42;;;;;;;44.30;25.73;;;0.60;99.90;;;;;;5051664;28;20217;-69
2022/12/17 13:41:08;;;;;;;49.77;27.27;;;0.60;99.90;;;;;;5051786;28;20182;-70
2022/12/17 13:43:57;;;;;;;43.97;26.07;;;0.60;99.90;;;;;;5051382;28;20198;-70
2022/12/17 13:46:40;;;;;;;46.30;26.87;;;0.50;99.90;;;;;;5050578;28;20213;-70
2022/12/17 13:49:33;;;;;;;47.83;26.87;;;0.40;99.90;;;;;;5051525;28;20186;-69
2022/12/17 13:52:26;;;;;;;48.77;26.60;;;0.50;99.90;;;;;;5050682;28;20198;-70
2022/12/17 13:54:53;;;;;;;51.63;28.83;;;0.50;99.90;;;;;;5048460;28;20198;-69
2022/12/17 13:57:24;;;;;;;48.03;26.63;;;0.50;99.90;;;;;;5051154;28;20200;-69
2022/12/17 13:59:55;;;;;;;44.87;25.60;;;0.50;99.90;;;;;;5051144;28;20657;-69
2022/12/17 14:02:30;;;;;;;48.87;28.07;;;0.40;99.90;;;;;;5051480;28;20213;-70
2022/12/17 14:04:58;;;;;;;47.10;27.60;;;0.50;99.90;;;;;;5051502;28;20669;-70
2022/12/17 14:07:25;;;;;;;46.30;24.50;;;0.40;99.90;;;;;;5049970;28;20185;-69
2022/12/17 14:09:52;;;;;;;49.80;27.03;;;0.40;99.90;;;;;;5064196;28;20199;-70
2022/12/17 14:12:23;;;;;;;43.70;25.40;;;0.30;99.90;;;;;;5062802;28;20211;-70
2022/12/17 14:14:57;;;;;;;52.03;27.33;;;0.30;99.90;;;;;;5055944;28;20193;-69
2022/12/17 14:17:28;;;;;;;44.00;25.03;;;0.10;99.90;;;;;;5059512;28;20197;-70
2022/12/17 14:20:03;;;;;;;51.83;27.10;;;-0.10;99.90;;;;;;5051440;28;20186;-69
2022/12/17 14:22:37;;;;;;;46.27;27.40;;;-0.40;99.90;;;;;;5050850;28;20597;-69
2022/12/17 14:25:05;;;;;;;42.67;26.27;;;-0.60;99.90;;;;;;5050679;28;20576;-69
2022/12/17 14:27:35;;;;;;;50.53;26.17;;;-0.80;99.90;;;;;;5050856;28;20174;-69
2022/12/17 14:30:23;;;;;;;52.93;27.97;;;-1.00;99.90;;;;;;5051007;28;20186;-69
2022/12/17 14:32:49;;;;;;;41.73;25.33;;;-1.30;99.90;;;;;;5049608;28;20211;-69
2022/12/17 14:35:31;;;;;;;50.93;28.37;;;-1.50;99.90;;;;;;5049637;28;20186;-69
2022/12/17 14:37:56;;;;;;;49.63;27.00;;;-1.60;99.90;;;;;;5050608;28;20186;-69
2022/12/17 14:40:24;;;;;;;59.80;26.07;;;-1.60;99.90;;;;;;5050945;28;20269;-68
2022/12/17 14:42:56;;;;;;;48.60;27.63;;;-1.60;99.90;;;;;;5049696;28;20202;-69
2022/12/17 14:45:24;;;;;;;49.50;25.67;;;-1.50;99.90;;;;;;5050077;28;20202;-69
2022/12/17 14:48:05;;;;;;;49.60;26.77;;;-1.60;99.90;;;;;;5048591;28;20230;-68
2022/12/17 14:50:35;;;;;;;38.30;23.90;;;-1.70;99.90;;;;;;5048857;28;20549;-69
2022/12/17 14:53:22;;;;;;;43.73;24.80;;;-1.80;99.90;;;;;;5050624;28;20197;-68
2022/12/17 14:55:54;;;;;;;43.23;24.97;;;-1.90;99.90;;;;;;5051527;28;20631;-69
2022/12/17 14:58:22;;;;;;;43.53;24.57;;;-2.10;99.90;;;;;;5050549;28;20337;-69
2022/12/17 15:01:07;;;;;;;39.40;23.33;;;-2.30;99.90;;;;;;5050754;28;20186;-69
2022/12/17 15:03:38;;;;;;;45.93;26.33;;;-2.60;99.90;;;;;;5049452;28;20240;-69
2022/12/17 15:06:07;;;;;;;45.23;25.87;;;-2.80;99.90;;;;;;5049060;28;20206;-68
2022/12/17 15:08:45;;;;;;;45.00;27.03;;;-3.00;99.90;;;;;;5049344;28;20178;-68
2022/12/17 15:11:13;;;;;;;50.07;27.47;;;-3.20;99.90;;;;;;5050732;28;20178;-69
2022/12/17 15:13:40;;;;;;;43.67;27.67;;;-3.40;99.90;;;;;;5050823;28;20202;-68
2022/12/17 15:16:06;;;;;;;48.03;25.50;;;-3.50;99.90;;;;;;5050979;28;20630;-68
2022/12/17 15:18:32;;;;;;;51.03;26.43;;;-3.50;99.90;;;;;;5050146;28;20174;-68
2022/12/17 15:20:58;;;;;;;45.70;26.13;;;-3.60;99.90;;;;;;5050454;28;20661;-68
2022/12/17 15:23:24;;;;;;;51.13;28.27;;;-3.70;99.90;;;;;;5050419;28;20209;-70
2022/12/17 15:25:51;;;;;;;48.67;27.50;;;-3.80;99.90;;;;;;5050592;28;20564;-69
2022/12/17 15:28:18;;;;;;;46.97;28.83;;;-3.90;99.90;;;;;;5050219;28;20170;-68
2022/12/17 15:30:45;;;;;;;51.63;28.53;;;-4.00;99.90;;;;;;5050626;28;20182;-68
2022/12/17 15:33:12;;;;;;;54.30;29.50;;;-4.10;99.90;;;;;;5050150;28;20198;-68
2022/12/17 15:35:39;;;;;;;46.77;26.87;;;-4.20;99.90;;;;;;5050614;28;20179;-68
2022/12/17 15:38:06;;;;;;;50.27;27.33;;;-4.30;99.90;;;;;;5048921;28;20229;-68
2022/12/17 15:40:32;;;;;;;49.47;26.40;;;-4.40;99.90;;;;;;5050659;28;20710;-68
2022/12/17 15:43:10;;;;;;;52.90;28.97;;;-4.40;99.90;;;;;;5050519;28;20198;-68
2022/12/17 15:45:47;;;;;;;53.47;27.10;;;-4.50;99.90;;;;;;5050602;28;20214;-69
2022/12/17 15:48:15;;;;;;;48.37;26.63;;;-4.60;99.90;;;;;;5049993;28;20546;-68
2022/12/17 15:50:41;;;;;;;58.63;27.97;;;-4.60;99.90;;;;;;5050897;28;20186;-69
2022/12/17 15:53:08;;;;;;;42.30;25.77;;;-4.70;99.90;;;;;;5051135;28;20790;-70
2022/12/17 15:55:35;;;;;;;44.43;25.93;;;-4.70;99.90;;;;;;5052249;28;20566;-70
2022/12/17 15:58:01;;;;;;;47.73;26.90;;;-4.70;99.90;;;;;;5065311;28;20170;-69
2022/12/17 16:00:27;;;;;;;46.13;25.40;;;-4.80;99.90;;;;;;5063739;28;20186;-70
2022/12/17 16:02:53;;;;;;;52.37;28.27;;;-4.80;99.90;;;;;;5054836;28;20217;-69
2022/12/17 16:05:19;;;;;;;52.23;27.40;;;-4.90;99.90;;;;;;5054060;28;20208;-67
2022/12/17 16:07:45;;;;;;;48.33;27.33;;;-4.90;99.90;;;;;;5052739;28;20200;-69
2022/12/17 16:10:12;;;;;;;55.67;26.03;;;-5.00;99.90;;;;;;5054031;28;20717;-68
2022/12/17 16:12:38;;;;;;;41.87;26.23;;;-5.00;99.90;;;;;;5054294;28;20198;-73
2022/12/17 16:15:05;;;;;;;56.07;27.57;;;-5.20;99.90;;;;;;5052541;28;20174;-69
2022/12/17 16:17:31;;;;;;;50.13;28.53;;;-5.30;99.90;;;;;;5053892;28;20663;-69
2022/12/17 16:19:57;;;;;;;49.50;26.83;;;-5.30;99.90;;;;;;5053947;28;20658;-70
2022/12/17 16:22:23;;;;;;;57.03;27.10;;;-5.40;99.90;;;;;;5053733;28;20206;-69
2022/12/17 16:24:48;;;;;;;53.57;26.70;;;-5.40;99.90;;;;;;5052232;28;20194;-68
2022/12/17 16:27:16;;;;;;;46.00;25.03;;;-5.50;99.90;;;;;;5053370;28;20554;-68
2022/12/17 16:29:42;;;;;;;46.90;25.33;;;-5.60;99.90;;;;;;5053259;28;20220;-68
2022/12/17 16:32:08;;;;;;;51.00;26.33;;;-5.60;99.90;;;;;;5053425;28;20562;-68
2022/12/17 16:34:34;;;;;;;46.50;25.30;;;-5.70;99.90;;;;;;5053471;28;20178;-68
2022/12/17 16:37:00;;;;;;;48.97;26.50;;;-5.70;99.90;;;;;;5052281;28;20186;-69
2022/12/17 16:39:26;;;;;;;54.13;25.60;;;-5.80;99.90;;;;;;5053459;28;20181;-69
2022/12/17 16:41:52;;;;;;;41.70;26.17;;;-5.80;99.90;;;;;;5053339;28;20206;-69
2022/12/17 16:44:18;;;;;;;52.27;27.00;;;-5.90;99.90;;;;;;5052886;28;20178;-69
2022/12/17 16:46:45;;;;;;;54.97;27.77;;;-5.90;99.90;;;;;;5052832;28;20175;-69
2022/12/17 16:49:22;;;;;;;50.33;26.63;;;-6.00;99.90;;;;;;5052012;28;20186;-69
2022/12/17 16:51:52;;;;;;;53.07;27.20;;;-6.00;99.90;;;;;;5053321;28;20205;-69
2022/12/17 16:54:24;;;;;;;49.13;26.57;;;-6.00;99.90;;;;;;5053231;28;20208;-69
2022/12/17 16:56:51;;;;;;;59.63;29.43;;;-6.10;99.90;;;;;;5051690;28;20183;-69
2022/12/17 16:59:17;;;;;;;53.33;27.37;;;-6.10;99.90;;;;;;5052998;28;20179;-70
2022/12/17 17:01:47;;;;;;;58.70;29.60;;;-6.10;99.90;;;;;;5052802;28;20214;-70
2022/12/17 17:04:14;;;;;;;52.57;26.77;;;-6.10;99.90;;;;;;5052953;28;20275;-69
2022/12/17 17:06:52;;;;;;;54.93;30.70;;;-6.20;99.90;;;;;;5052931;28;20190;-69
2022/12/17 17:09:19;;;;;;;64.87;30.90;;;-6.20;99.90;;;;;;5051396;28;20198;-70
2022/12/17 17:11:45;;;;;;;56.67;31.93;;;-6.30;99.90;;;;;;5052121;28;20272;-68
2022/12/17 17:14:11;;;;;;;55.90;29.93;;;-6.30;99.90;;;;;;5051250;28;20189;-69
2022/12/17 17:16:37;;;;;;;61.73;32.10;;;-6.40;99.90;;;;;;5061539;28;20178;-70
2022/12/17 17:19:04;;;;;;;54.73;31.53;;;-6.40;99.90;;;;;;5054067;28;20706;-74
2022/12/17 17:21:35;;;;;;;59.10;32.40;;;-6.40;99.90;;;;;;5069116;28;20172;-85
2022/12/17 17:24:06;;;;;;;57.50;31.83;;;-6.40;99.90;;;;;;5054415;28;20267;-84
2022/12/17 17:26:32;;;;;;;58.67;31.63;;;-6.50;99.90;;;;;;5090233;28;20217;-83
2022/12/17 17:28:59;;;;;;;64.20;37.03;;;-6.50;99.90;;;;;;5058936;28;20557;-84
2022/12/17 17:31:25;;;;;;;64.40;35.03;;;-6.50;99.90;;;;;;5059248;28;20186;-83
2022/12/17 17:33:52;;;;;;;59.33;31.93;;;-6.60;99.90;;;;;;5059783;28;20178;-84
2022/12/17 17:36:23;;;;;;;64.60;31.67;;;-6.60;99.90;;;;;;5061562;28;20248;-84
2022/12/17 17:38:50;;;;;;;62.23;30.67;;;-6.60;99.90;;;;;;5058405;28;20635;-82
2022/12/17 17:41:19;;;;;;;50.27;29.87;;;-6.60;99.90;;;;;;5057109;28;20673;-83
2022/12/17 17:43:45;;;;;;;57.67;32.57;;;-6.60;99.90;;;;;;5057070;28;20175;-81
2022/12/17 17:46:16;;;;;;;56.47;29.80;;;-6.60;99.90;;;;;;5061571;28;20640;-81
2022/12/17 17:48:43;;;;;;;61.53;34.37;;;-6.60;99.90;;;;;;5067440;28;20178;-81
2022/12/17 17:51:18;;;;;;;63.00;35.57;;;-6.70;99.90;;;;;;5054346;28;20585;-82
2022/12/17 17:53:46;;;;;;;68.87;36.17;;;-6.70;99.90;;;;;;5058025;28;20670;-83
2022/12/17 17:56:14;;;;;;;66.47;36.77;;;-6.70;99.90;;;;;;5067721;28;20182;-86
2022/12/17 17:58:46;;;;;;;53.77;33.90;;;-6.80;99.90;;;;;;5066823;28;20190;-86
2022/12/17 18:01:22;;;;;;;51.27;34.63;;;-6.80;99.90;;;;;;5060022;28;20186;-85
2022/12/17 18:03:48;;;;;;;61.83;34.73;;;-6.90;99.90;;;;;;5058110;28;20189;-84
2022/12/17 18:06:14;;;;;;;62.77;32.53;;;-6.90;99.90;;;;;;5056899;28;20213;-84
2022/12/17 18:08:41;;;;;;;53.23;29.70;;;-6.80;99.90;;;;;;5057353;28;20185;-85
2022/12/17 18:11:10;;;;;;;58.13;32.40;;;-6.90;99.90;;;;;;5056533;28;20170;-85
2022/12/17 18:13:54;;;;;;;54.83;34.50;;;-6.90;99.90;;;;;;5056363;28;20690;-83
2022/12/17 18:16:37;;;;;;;52.50;30.20;;;-6.90;99.90;;;;;;5057127;28;20186;-83
2022/12/17 18:19:18;;;;;;;70.30;36.67;;;-6.90;99.90;;;;;;5056830;28;20228;-83
2022/12/17 18:21:45;;;;;;;62.73;34.70;;;-6.90;99.90;;;;;;5056564;28;20202;-82
2022/12/17 18:24:14;;;;;;;64.80;33.53;;;-6.90;99.90;;;;;;5056048;28;20192;-83
2022/12/17 18:26:41;;;;;;;66.63;33.33;;;-7.00;99.90;;;;;;5057431;28;20249;-83
2022/12/17 18:29:23;;;;;;;62.63;32.70;;;-7.00;99.90;;;;;;5057965;28;20178;-83
2022/12/17 18:31:49;;;;;;;59.13;30.40;;;-6.90;99.90;;;;;;5057197;28;20701;-83
2022/12/17 18:34:17;;;;;;;62.53;29.87;;;-7.00;99.90;;;;;;5055775;28;20592;-82
2022/12/17 18:36:44;;;;;;;44.50;25.63;;;-7.00;99.90;;;;;;5060493;28;20313;-83
2022/12/17 18:39:19;;;;;;;62.43;30.17;;;-7.10;99.90;;;;;;5056110;28;20182;-83
2022/12/17 18:44:31;;;;;;;66.00;27.97;;;-7.20;99.90;;;;;;5056693;28;20178;-83
2022/12/17 18:46:57;;;;;;;52.67;27.23;;;-7.30;99.90;;;;;;5054639;28;20181;-82
2022/12/17 18:49:25;;;;;;;53.57;30.67;;;-7.30;99.90;;;;;;5056446;28;20182;-82
2022/12/17 18:51:52;;;;;;;65.67;35.00;;;-7.30;99.90;;;;;;5068925;28;20218;-83
2022/12/17 18:54:24;;;;;;;60.57;31.93;;;-7.30;99.90;;;;;;5071948;28;20182;-64
2022/12/17 18:56:51;;;;;;;50.73;27.63;;;-7.30;99.90;;;;;;5052156;28;20265;-65
2022/12/17 18:59:20;;;;;;;69.93;33.20;;;-7.30;99.90;;;;;;5051590;28;20185;-65
2022/12/17 19:01:47;;;;;;;76.50;34.03;;;-7.30;99.90;;;;;;5071226;23;20225;-62
2022/12/17 19:04:17;;;;;;;68.63;34.73;;;-7.30;99.90;;;;;;5033906;28;20201;-84
2022/12/17 19:06:44;;;;;;;80.97;35.27;;;-7.30;99.90;;;;;;5051607;28;20191;-83
2022/12/17 19:09:27;;;;;;;69.77;34.33;;;-7.30;99.90;;;;;;5034698;28;20258;-83
2022/12/17 19:11:54;;;;;;;58.93;28.80;;;-7.40;99.90;;;;;;5034976;28;20687;-84
2022/12/17 19:14:22;;;;;;;57.93;29.67;;;-7.40;99.90;;;;;;5036361;28;20183;-85
2022/12/17 19:16:49;;;;;;;48.47;29.07;;;-7.50;99.90;;;;;;5037749;28;20183;-85
2022/12/17 19:19:14;;;;;;;54.67;30.87;;;-7.60;99.90;;;;;;5050656;28;20181;-84
2022/12/17 19:21:40;;;;;;;63.50;32.23;;;-7.60;99.90;;;;;;5052049;28;20178;-84
2022/12/17 19:24:09;;;;;;;71.73;34.70;;;-7.70;99.90;;;;;;5042216;28;20242;-83
2022/12/17 19:26:35;;;;;;;66.23;33.33;;;-7.80;99.90;;;;;;5054365;28;20586;-84
2022/12/17 19:29:01;;;;;;;76.17;35.27;;;-7.80;99.90;;;;;;5048559;28;20249;-84
2022/12/17 19:31:29;;;;;;;63.77;33.23;;;-7.80;99.90;;;;;;5038766;28;20237;-84
2022/12/17 19:34:00;;;;;;;81.47;37.37;;;-7.90;99.90;;;;;;5037668;28;20252;-84
2022/12/17 19:36:28;;;;;;;69.27;33.10;;;-7.90;99.90;;;;;;5040545;28;20207;-83
2022/12/17 19:38:56;;;;;;;62.03;30.97;;;-7.90;99.90;;;;;;5039566;28;20186;-83
2022/12/17 19:41:23;;;;;;;61.63;29.03;;;-7.90;99.90;;;;;;5039149;28;20562;-82
2022/12/17 19:43:57;;;;;;;63.90;33.97;;;-8.00;99.90;;;;;;5038436;28;20199;-83
2022/12/17 19:46:25;;;;;;;61.93;30.73;;;-8.00;99.90;;;;;;5038594;28;20837;-83
2022/12/17 19:48:51;;;;;;;62.17;31.90;;;-8.00;99.90;;;;;;5037835;28;20182;-83
2022/12/17 19:51:21;;;;;;;53.23;30.87;;;-8.00;99.90;;;;;;5039731;28;20174;-83
2022/12/17 19:53:47;;;;;;;53.73;31.73;;;-7.90;99.90;;;;;;5049927;28;20202;-83
2022/12/17 19:56:17;;;;;;;60.03;32.37;;;-7.90;99.90;;;;;;5046485;28;20179;-85
2022/12/17 19:58:46;;;;;;;58.17;32.03;;;-7.90;99.90;;;;;;5037976;28;20179;-83
2022/12/17 20:01:15;;;;;;;49.67;27.47;;;-7.90;99.90;;;;;;5037988;28;20247;-83
2022/12/17 20:03:43;;;;;;;49.80;29.97;;;-8.00;99.90;;;;;;5037569;28;20215;-82
2022/12/17 20:06:10;;;;;;;63.90;33.13;;;-7.90;99.90;;;;;;5037869;28;20203;-83
2022/12/17 20:08:36;;;;;;;58.10;30.60;;;-8.00;99.90;;;;;;5038909;28;20758;-83
2022/12/17 20:11:31;;;;;;;57.07;29.07;;;-8.00;99.90;;;;;;5038267;28;20225;-83
2022/12/17 20:14:19;;;;;;;54.53;28.20;;;-8.10;99.90;;;;;;5045264;28;20233;-84
2022/12/17 20:16:46;;;;;;;49.07;29.60;;;-8.10;99.90;;;;;;5054911;28;20578;-84
2022/12/17 20:19:14;;;;;;;58.00;31.23;;;-8.20;99.90;;;;;;5056860;28;20218;-83
2022/12/17 20:21:41;;;;;;;57.40;28.57;;;-8.20;99.90;;;;;;5054507;28;20189;-84
2022/12/17 20:24:07;;;;;;;44.37;26.00;;;-8.20;99.90;;;;;;5054276;28;20179;-83
2022/12/17 20:26:33;;;;;;;52.07;26.60;;;-8.30;99.90;;;;;;5070904;28;20286;-83
2022/12/17 20:28:59;;;;;;;44.60;28.10;;;-8.40;99.90;;;;;;5040163;28;20211;-84
2022/12/17 20:31:26;;;;;;;55.93;26.90;;;-8.40;99.90;;;;;;5038264;28;20175;-83
2022/12/17 20:33:52;;;;;;;48.03;27.83;;;-8.40;99.90;;;;;;5038431;28;20198;-83
2022/12/17 20:36:19;;;;;;;53.50;31.10;;;-8.50;99.90;;;;;;5037766;28;20187;-83
2022/12/17 20:38:45;;;;;;;57.20;31.87;;;-8.50;99.90;;;;;;5037279;28;20183;-83
2022/12/17 20:41:19;;;;;;;46.13;28.50;;;-8.50;99.90;;;;;;5037475;28;20191;-83
2022/12/17 20:43:46;;;;;;;53.53;31.40;;;-8.50;99.90;;;;;;5038338;28;20725;-83
2022/12/17 20:46:12;;;;;;;63.27;31.33;;;-8.50;99.90;;;;;;5035794;28;20214;-82
2022/12/17 20:48:40;;;;;;;59.10;29.60;;;-8.60;99.90;;;;;;5038567;28;20187;-83
2022/12/17 20:51:17;;;;;;;55.07;29.53;;;-8.50;99.90;;;;;;5041219;28;20166;-84
2022/12/17 20:53:45;;;;;;;49.40;26.77;;;-8.50;99.90;;;;;;5054123;28;20195;-84
2022/12/17 20:56:17;;;;;;;59.97;31.50;;;-8.50;99.90;;;;;;5056008;28;20271;-82
2022/12/17 20:58:43;;;;;;;55.10;30.80;;;-8.60;99.90;;;;;;5043761;28;20316;-82
2022/12/17 21:01:15;;;;;;;52.77;29.47;;;-8.60;99.90;;;;;;5037132;28;20207;-82
2022/12/17 21:03:42;;;;;;;57.50;30.00;;;-8.60;99.90;;;;;;5036015;28;20639;-81
2022/12/17 21:06:09;;;;;;;50.27;28.93;;;-8.60;99.90;;;;;;5041474;28;20207;-82
2022/12/17 21:08:35;;;;;;;53.00;26.93;;;-8.60;99.90;;;;;;5046068;28;20190;-82
2022/12/17 21:11:02;;;;;;;47.43;28.23;;;-8.60;99.90;;;;;;5035982;28;20553;-82
2022/12/17 21:13:28;;;;;;;46.13;26.17;;;-8.60;99.90;;;;;;5035877;28;20233;-83
2022/12/17 21:15:54;;;;;;;52.17;26.77;;;-8.60;99.90;;;;;;5036392;28;20563;-82
2022/12/17 21:18:20;;;;;;;49.57;26.13;;;-8.70;99.90;;;;;;5035810;28;20191;-82
2022/12/17 21:20:57;;;;;;;55.63;28.97;;;-8.70;99.90;;;;;;5045202;28;20183;-82
2022/12/17 21:23:23;;;;;;;54.70;30.13;;;-8.80;99.90;;;;;;5047961;28;20260;-82
2022/12/17 21:26:12;;;;;;;54.63;28.30;;;-8.80;99.90;;;;;;5037032;28;20219;-83
2022/12/17 21:28:40;;;;;;;50.67;26.47;;;-8.90;99.90;;;;;;5037009;28;20183;-82
2022/12/17 21:31:24;;;;;;;50.40;28.10;;;-9.00;99.90;;;;;;5037753;28;20186;-83
2022/12/17 21:33:52;;;;;;;47.37;26.53;;;-9.10;99.90;;;;;;5036536;28;20206;-82
2022/12/17 21:36:20;;;;;;;59.30;27.80;;;-9.10;99.90;;;;;;5036593;28;20743;-82
2022/12/17 21:38:46;;;;;;;43.10;25.33;;;-9.10;99.90;;;;;;5038981;28;20213;-83
2022/12/17 21:41:15;;;;;;;45.47;26.43;;;-9.10;99.90;;;;;;5041831;28;20650;-83
2022/12/17 21:43:41;;;;;;;44.93;25.67;;;-9.10;99.90;;;;;;5035805;28;20575;-83
2022/12/17 21:46:09;;;;;;;43.50;24.47;;;-9.10;99.90;;;;;;5048534;28;20199;-82
2022/12/17 21:48:37;;;;;;;46.73;22.30;;;-9.20;99.90;;;;;;5052613;28;20183;-83
2022/12/17 21:51:05;;;;;;;37.37;24.23;;;-9.20;99.90;;;;;;5042796;28;20167;-83
2022/12/17 21:53:31;;;;;;;49.13;25.97;;;-9.20;99.90;;;;;;5051840;28;20266;-82
2022/12/17 21:56:04;;;;;;;50.43;24.70;;;-9.30;99.90;;;;;;5041431;28;20175;-83
2022/12/17 21:58:30;;;;;;;48.60;25.70;;;-9.30;99.90;;;;;;5055073;28;20205;-83
2022/12/17 22:00:56;;;;;;;45.03;25.80;;;-9.30;99.90;;;;;;5055912;28;20179;-83
2022/12/17 22:03:22;;;;;;;59.53;29.53;;;-9.20;99.90;;;;;;5037864;28;20714;-83
2022/12/17 22:05:48;;;;;;;53.73;27.93;;;-9.20;99.90;;;;;;5036541;28;20202;-83
2022/12/17 22:08:14;;;;;;;45.50;25.73;;;-9.10;99.90;;;;;;5036354;28;20191;-83
2022/12/17 22:10:41;;;;;;;53.27;28.43;;;-9.10;99.90;;;;;;5038740;28;20171;-83
2022/12/17 22:15:54;;;;;;;47.03;27.40;;;-9.20;99.90;;;;;;5036869;28;20721;-84
2022/12/17 22:18:20;;;;;;;57.93;28.77;;;-9.30;99.90;;;;;;5035247;28;20243;-83
2022/12/17 22:21:00;;;;;;;42.77;25.90;;;-9.30;99.90;;;;;;5035755;28;20176;-83
2022/12/17 22:23:26;;;;;;;48.13;25.47;;;-9.30;99.90;;;;;;5035570;28;20695;-83
2022/12/17 22:25:52;;;;;;;46.87;23.60;;;-9.30;99.90;;;;;;5035440;28;20245;-82
2022/12/17 22:28:18;;;;;;;49.47;27.23;;;-9.30;99.90;;;;;;5034481;28;20183;-83
2022/12/17 22:33:28;;;;;;;42.80;25.60;;;-9.30;99.90;;;;;;5036139;28;20234;-81
2022/12/17 22:35:59;;;;;;;43.27;25.50;;;-9.40;99.90;;;;;;5034273;28;20210;-83
2022/12/17 22:38:25;;;;;;;51.33;26.63;;;-9.40;99.90;;;;;;5034765;28;20174;-83
2022/12/17 22:40:51;;;;;;;41.87;22.87;;;-9.40;99.90;;;;;;5034312;28;20214;-84
2022/12/17 22:43:29;;;;;;;44.53;25.77;;;-9.50;99.90;;;;;;5034331;28;20289;-83
2022/12/17 22:46:03;;;;;;;43.93;26.00;;;-9.50;99.90;;;;;;5043219;28;20210;-83
2022/12/17 22:48:30;;;;;;;48.67;24.27;;;-9.60;99.90;;;;;;5037073;28;20191;-83
2022/12/17 22:50:57;;;;;;;43.53;26.70;;;-9.60;99.90;;;;;;5036358;28;20175;-83
2022/12/17 22:53:23;;;;;;;39.03;24.53;;;-9.50;99.90;;;;;;5034735;28;20294;-83
2022/12/17 22:55:50;;;;;;;45.10;26.93;;;-9.50;99.90;;;;;;5034005;28;20187;-83
2022/12/17 22:58:16;;;;;;;40.80;26.33;;;-9.50;99.90;;;;;;5033925;28;20644;-83
2022/12/17 23:00:43;;;;;;;55.83;27.37;;;-9.50;99.90;;;;;;5032899;28;20183;-82
2022/12/17 23:03:09;;;;;;;50.07;28.20;;;-9.50;99.90;;;;;;5031373;28;20222;-82
2022/12/17 23:05:35;;;;;;;45.27;26.67;;;-9.40;99.90;;;;;;5031540;28;20256;-81
2022/12/17 23:08:01;;;;;;;50.27;26.57;;;-9.40;99.90;;;;;;5036454;28;20250;-81
2022/12/17 23:10:27;;;;;;;43.37;25.37;;;-9.50;99.90;;;;;;5032351;28;20262;-82
2022/12/17 23:12:54;;;;;;;48.30;26.83;;;-9.50;99.90;;;;;;5032848;28;20234;-83
2022/12/17 23:15:24;;;;;;;49.80;24.17;;;-9.50;99.90;;;;;;5042251;28;20230;-81
2022/12/17 23:17:52;;;;;;;42.97;23.40;;;-9.60;99.90;;;;;;5056118;28;20194;-82
2022/12/17 23:20:18;;;;;;;37.63;24.73;;;-9.70;99.90;;;;;;5056631;28;20167;-82
2022/12/17 23:22:44;;;;;;;38.33;24.17;;;-9.70;99.90;;;;;;5055702;28;20255;-83
2022/12/17 23:25:11;;;;;;;42.03;23.40;;;-9.80;99.90;;;;;;5036234;28;20202;-83
2022/12/17 23:27:46;;;;;;;44.80;22.83;;;-9.70;99.90;;;;;;5034784;28;20576;-83
2022/12/17 23:30:13;;;;;;;41.33;24.40;;;-9.80;99.90;;;;;;5034015;28;20186;-83
2022/12/17 23:32:39;;;;;;;39.70;21.67;;;-9.80;99.90;;;;;;5033986;28;20256;-83
2022/12/17 23:35:06;;;;;;;31.37;22.07;;;-9.80;99.90;;;;;;5033689;28;20237;-83
2022/12/17 23:37:32;;;;;;;31.90;20.63;;;-9.80;99.90;;;;;;5033327;28;20202;-83
2022/12/17 23:39:58;;;;;;;34.43;21.07;;;-9.90;99.90;;;;;;5032996;28;20186;-83
2022/12/17 23:42:23;;;;;;;39.27;22.13;;;-9.90;99.90;;;;;;5034812;28;20199;-83
2022/12/17 23:44:49;;;;;;;36.23;23.30;;;-10.00;99.90;;;;;;5033950;28;20313;-83
2022/12/17 23:47:15;;;;;;;45.37;21.50;;;-10.00;99.90;;;;;;5032953;28;20249;-83
2022/12/17 23:49:40;;;;;;;46.30;22.73;;;-10.00;99.90;;;;;;5033470;28;20179;-82
2022/12/17 23:52:07;;;;;;;47.60;25.40;;;-10.00;99.90;;;;;;5033144;28;20190;-82
2022/12/17 23:54:33;;;;;;;16.40;14.80;;;-10.10;99.90;;;;;;5032877;28;20739;-82
2022/12/17 23:56:59;;;;;;;40.03;23.80;;;-10.10;99.90;;;;;;5032723;28;20202;-83
2022/12/17 23:59:24;;;;;;;47.03;25.37;;;-10.10;99.90;;;;;;5032488;28;20183;-82
